createdAt,value
2024-02-19T00:02:11.945Z,97639.44
2024-02-19T00:04:38.417Z,97625.09
2024-02-19T00:07:04.919Z,97623.94
2024-02-19T00:09:31.297Z,97616.50
2024-02-19T00:11:57.821Z,97625.97
2024-02-19T00:14:24.187Z,97619.22
2024-02-19T00:16:50.539Z,97622.81
2024-02-19T00:19:17.125Z,97632.50
2024-02-19T00:21:43.593Z,97631.22
2024-02-19T00:24:09.953Z,97625.59
2024-02-19T00:26:36.308Z,97627.59
2024-02-19T00:29:02.651Z,97626.38
2024-02-19T00:31:28.996Z,97633.19
2024-02-19T00:33:55.566Z,97633.94
2024-02-19T00:36:22.262Z,97634.78
2024-02-19T00:38:48.606Z,97638.75
2024-02-19T00:41:14.971Z,97636.38
2024-02-19T00:43:41.316Z,97637.22
2024-02-19T00:46:07.742Z,97639.63
2024-02-19T00:48:34.423Z,97639.16
2024-02-19T00:51:00.906Z,97629.25
2024-02-19T00:53:27.238Z,97625.69
2024-02-19T00:55:54.096Z,97616.06
2024-02-19T00:58:20.664Z,97619.81
2024-02-19T01:00:47.224Z,97618.06
2024-02-19T01:03:13.681Z,97610.47
2024-02-19T01:05:40.048Z,97626.03
2024-02-19T01:08:06.412Z,97630.94
2024-02-19T01:10:32.776Z,97635.31
2024-02-19T01:12:59.174Z,97620.53
2024-02-19T01:15:25.578Z,97631.72
2024-02-19T01:17:52.050Z,97631.78
2024-02-19T01:20:18.458Z,97630.56
2024-02-19T01:22:44.830Z,97632.97
2024-02-19T01:25:11.270Z,97630.97
2024-02-19T01:27:37.720Z,97635.38
2024-02-19T01:30:04.092Z,97628.97
2024-02-19T01:32:30.474Z,97636.19
2024-02-19T01:34:56.971Z,97622.66
2024-02-19T01:37:23.469Z,97627.78
2024-02-19T01:39:49.904Z,97625.41
2024-02-19T01:42:16.269Z,97627.78
2024-02-19T01:44:42.640Z,97634.22
2024-02-19T01:47:09.021Z,97634.97
2024-02-19T01:49:35.434Z,97620.59
2024-02-19T01:52:01.868Z,97621.81
2024-02-19T01:54:29.053Z,97618.63
2024-02-19T01:56:55.394Z,97613.78
2024-02-19T01:59:21.735Z,97618.97
2024-02-19T02:01:48.291Z,97612.56
2024-02-19T02:04:14.693Z,97620.09
2024-02-19T02:06:41.106Z,97614.19
2024-02-19T02:09:07.510Z,97617.38
2024-02-19T02:11:33.944Z,97621.31
2024-02-19T02:14:00.343Z,97614.13
2024-02-19T02:16:26.737Z,97606.97
2024-02-19T02:18:54.588Z,97611.72
2024-02-19T02:21:21.385Z,97617.28
2024-02-19T02:23:47.754Z,97605.31
2024-02-19T02:26:17.084Z,97612.56
2024-02-19T02:28:43.434Z,97602.06
2024-02-19T02:31:09.859Z,97594.09
2024-02-19T02:33:36.374Z,97594.97
2024-02-19T02:36:02.781Z,97593.72
2024-02-19T02:38:29.155Z,97596.97
2024-02-19T02:40:55.491Z,97592.53
2024-02-19T02:43:21.847Z,97594.91
2024-02-19T02:45:49.015Z,97588.50
2024-02-19T02:48:16.219Z,97588.13
2024-02-19T02:50:42.638Z,97582.50
2024-02-19T02:53:08.985Z,97584.91
2024-02-19T02:55:35.318Z,97587.72
2024-02-19T02:58:01.690Z,97590.13
2024-02-19T03:00:28.084Z,97584.06
2024-02-19T03:02:54.471Z,97574.44
2024-02-19T03:05:20.846Z,97570.78
2024-02-19T03:07:47.399Z,97572.38
2024-02-19T03:10:14.048Z,97563.59
2024-02-19T03:12:40.439Z,97571.72
2024-02-19T03:15:06.811Z,97567.78
2024-02-19T03:17:33.189Z,97565.34
2024-02-19T03:19:59.599Z,97572.53
2024-02-19T03:22:26.074Z,97570.22
2024-02-19T03:24:52.455Z,97569.44
2024-02-19T03:27:18.806Z,97561.50
2024-02-19T03:29:47.938Z,97567.44
2024-02-19T03:32:14.292Z,97564.28
2024-02-19T03:34:40.708Z,97569.44
2024-02-19T03:37:07.283Z,97567.78
2024-02-19T03:39:33.680Z,97576.91
2024-02-19T03:42:00.042Z,97575.75
2024-02-19T03:44:26.444Z,97575.81
2024-02-19T03:46:52.877Z,97572.97
2024-02-19T03:49:19.377Z,97580.66
2024-02-19T03:51:45.854Z,97579.78
2024-02-19T03:54:14.262Z,97589.41
2024-02-19T03:56:40.899Z,97577.81
2024-02-19T03:59:07.653Z,97578.28
2024-02-19T04:01:34.091Z,97572.66
2024-02-19T04:04:00.659Z,97578.31
2024-02-19T04:06:27.126Z,97572.66
2024-02-19T04:08:53.526Z,97578.28
2024-02-19T04:11:19.931Z,97563.88
2024-02-19T04:13:46.320Z,97573.50
2024-02-19T04:16:12.744Z,97575.16
2024-02-19T04:18:39.305Z,97581.91
2024-02-19T04:21:05.729Z,97578.41
2024-02-19T04:23:32.098Z,97586.28
2024-02-19T04:25:58.435Z,97585.53
2024-02-19T04:28:24.946Z,97588.28
2024-02-19T04:30:51.359Z,97581.53
2024-02-19T04:33:17.842Z,97590.75
2024-02-19T04:35:44.258Z,97591.53
2024-02-19T04:38:10.595Z,97586.38
2024-02-19T04:40:36.921Z,97597.19
2024-02-19T04:43:03.310Z,97599.13
2024-02-19T04:45:29.776Z,97595.53
2024-02-19T04:47:56.143Z,97589.94
2024-02-19T04:50:22.684Z,97592.31
2024-02-19T04:52:49.128Z,97591.13
2024-02-19T04:55:15.524Z,97590.31
2024-02-19T04:57:41.947Z,97584.00
2024-02-19T05:00:08.362Z,97588.38
2024-02-19T05:02:34.739Z,97593.59
2024-02-19T05:05:01.260Z,97586.41
2024-02-19T05:07:27.713Z,97596.41
2024-02-19T05:09:54.677Z,97593.66
2024-02-19T05:12:21.103Z,97593.63
2024-02-19T05:14:47.472Z,97588.50
2024-02-19T05:17:13.820Z,97600.41
2024-02-19T05:19:40.397Z,97593.19
2024-02-19T05:22:06.836Z,97591.22
2024-02-19T05:24:33.253Z,97586.81
2024-02-19T05:26:59.612Z,97584.50
2024-02-19T05:29:28.870Z,97590.88
2024-02-19T05:31:55.267Z,97596.47
2024-02-19T05:34:21.807Z,97584.50
2024-02-19T05:36:48.350Z,97593.31
2024-02-19T05:39:14.817Z,97594.94
2024-02-19T05:41:41.288Z,97598.53
2024-02-19T05:44:07.757Z,97598.06
2024-02-19T05:46:34.105Z,97598.06
2024-02-19T05:49:00.646Z,97593.63
2024-02-19T05:51:27.066Z,97595.66
2024-02-19T05:53:53.408Z,97591.25
2024-02-19T05:56:19.772Z,97583.19
2024-02-19T05:58:46.122Z,97590.44
2024-02-19T06:01:12.703Z,97600.06
2024-02-19T06:03:39.329Z,97589.66
2024-02-19T06:06:05.763Z,97590.88
2024-02-19T06:08:32.127Z,97584.16
2024-02-19T06:10:58.676Z,97580.53
2024-02-19T06:13:25.214Z,97590.53
2024-02-19T06:15:51.624Z,97590.16
2024-02-19T06:18:18.360Z,97595.66
2024-02-19T06:20:44.806Z,97596.88
2024-02-19T06:23:11.153Z,97601.59
2024-02-19T06:25:37.539Z,97606.72
2024-02-19T06:28:03.950Z,97600.69
2024-02-19T06:30:30.301Z,97598.66
2024-02-19T06:32:56.706Z,97607.03
2024-02-19T06:35:23.129Z,97616.69
2024-02-19T06:37:49.531Z,97621.81
2024-02-19T06:40:16.000Z,97625.03
2024-02-19T06:42:42.436Z,97633.06
2024-02-19T06:45:08.846Z,97637.47
2024-02-19T06:47:35.246Z,97635.06
2024-02-19T06:50:01.688Z,97641.03
2024-02-19T06:52:28.121Z,97635.78
2024-02-19T06:54:54.585Z,97631.16
2024-02-19T06:57:20.955Z,97635.97
2024-02-19T06:59:47.318Z,97619.91
2024-02-19T07:02:14.114Z,97622.66
2024-02-19T07:04:40.682Z,97616.28
2024-02-19T07:07:07.246Z,97612.63
2024-02-19T07:09:33.734Z,97625.03
2024-02-19T07:12:00.106Z,97624.63
2024-02-19T07:14:26.472Z,97631.38
2024-02-19T07:16:52.843Z,97633.38
2024-02-19T07:19:19.297Z,97638.53
2024-02-19T07:21:45.771Z,97642.34
2024-02-19T07:24:12.167Z,97635.00
2024-02-19T07:26:38.502Z,97649.94
2024-02-19T07:29:04.848Z,97642.91
2024-02-19T07:31:31.278Z,97641.97
2024-02-19T07:33:57.911Z,97636.13
2024-02-19T07:36:24.357Z,97659.47
2024-02-19T07:38:50.720Z,97663.97
2024-02-19T07:41:17.052Z,97668.25
2024-02-19T07:43:43.379Z,97669.88
2024-02-19T07:46:09.749Z,97671.91
2024-02-19T07:48:36.177Z,97661.63
2024-02-19T07:51:02.609Z,97676.91
2024-02-19T07:53:28.964Z,97696.50
2024-02-19T07:55:55.313Z,97707.63
2024-02-19T07:58:21.957Z,97709.13
2024-02-19T08:00:48.493Z,97714.66
2024-02-19T08:03:14.941Z,97708.63
2024-02-19T08:05:41.284Z,97714.94
2024-02-19T08:08:07.655Z,97711.72
2024-02-19T08:10:34.239Z,97706.06
2024-02-19T08:13:00.748Z,97702.06
2024-02-19T08:15:27.241Z,97696.88
2024-02-19T08:17:53.699Z,97704.38
2024-02-19T08:20:20.122Z,97704.78
2024-02-19T08:22:47.231Z,97713.50
2024-02-19T08:25:13.810Z,97715.00
2024-02-19T08:27:40.217Z,97730.56
2024-02-19T08:30:06.650Z,97726.03
2024-02-19T08:32:33.098Z,97719.69
2024-02-19T08:34:59.615Z,97730.91
2024-02-19T08:37:26.061Z,97723.25
2024-02-19T08:39:52.520Z,97725.13
2024-02-19T08:42:18.918Z,97711.50
2024-02-19T08:44:45.302Z,97707.53
2024-02-19T08:47:11.664Z,97716.06
2024-02-19T08:49:38.124Z,97731.19
2024-02-19T08:52:04.592Z,97726.03
2024-02-19T08:54:30.948Z,97729.44
2024-02-19T08:56:57.289Z,97721.94
2024-02-19T08:59:23.644Z,97730.56
2024-02-19T09:01:50.171Z,97730.97
2024-02-19T09:04:16.788Z,97735.72
2024-02-19T09:06:43.401Z,97732.06
2024-02-19T09:09:09.819Z,97725.94
2024-02-19T09:11:36.198Z,97727.91
2024-02-19T09:14:02.610Z,97726.59
2024-02-19T09:16:29.037Z,97718.91
2024-02-19T09:18:55.670Z,97720.59
2024-02-19T09:21:22.176Z,97734.94
2024-02-19T09:23:48.564Z,97742.78
2024-02-19T09:26:14.921Z,97734.69
2024-02-19T09:28:41.289Z,97722.19
2024-02-19T09:31:07.693Z,97730.94
2024-02-19T09:33:34.110Z,97727.81
2024-02-19T09:36:00.556Z,97734.41
2024-02-19T09:38:26.903Z,97726.25
2024-02-19T09:40:53.393Z,97714.28
2024-02-19T09:43:19.831Z,97709.94
2024-02-19T09:45:46.294Z,97720.03
2024-02-19T09:48:12.853Z,97722.28
2024-02-19T09:50:39.314Z,97709.16
2024-02-19T09:53:05.672Z,97710.00
2024-02-19T09:55:32.040Z,97704.78
2024-02-19T09:57:58.527Z,97700.41
2024-02-19T10:00:24.944Z,97703.66
2024-02-19T10:02:51.353Z,97683.47
2024-02-19T10:05:17.859Z,97689.00
2024-02-19T10:07:44.442Z,97691.53
2024-02-19T10:10:10.875Z,97708.09
2024-02-19T10:12:37.295Z,97715.88
2024-02-19T10:15:03.696Z,97715.09
2024-02-19T10:17:30.113Z,97715.63
2024-02-19T10:19:56.669Z,97717.72
2024-02-19T10:22:23.096Z,97723.38
2024-02-19T10:24:49.506Z,97718.94
2024-02-19T10:27:15.900Z,97723.38
2024-02-19T10:29:42.250Z,97719.78
2024-02-19T10:32:08.597Z,97715.75
2024-02-19T10:34:35.009Z,97720.16
2024-02-19T10:37:01.408Z,97711.69
2024-02-19T10:39:27.767Z,97710.94
2024-02-19T10:41:54.165Z,97716.63
2024-02-19T10:44:20.505Z,97704.59
2024-02-19T10:46:46.891Z,97701.84
2024-02-19T10:49:13.339Z,97699.88
2024-02-19T10:51:40.123Z,97684.63
2024-02-19T10:54:06.539Z,97683.22
2024-02-19T10:56:32.943Z,97674.06
2024-02-19T10:58:59.321Z,97680.91
2024-02-19T11:01:25.799Z,97652.03
2024-02-19T11:03:52.436Z,97658.53
2024-02-19T11:06:18.935Z,97671.19
2024-02-19T11:08:45.300Z,97678.22
2024-02-19T11:11:11.794Z,97680.94
2024-02-19T11:13:38.184Z,97671.19
2024-02-19T11:16:04.575Z,97680.47
2024-02-19T11:18:31.079Z,97646.63
2024-02-19T11:20:57.458Z,97636.84
2024-02-19T11:23:23.822Z,97641.50
2024-02-19T11:25:50.203Z,97642.34
2024-02-19T11:28:16.746Z,97648.69
2024-02-19T11:30:43.450Z,97645.69
2024-02-19T11:33:09.972Z,97638.41
2024-02-19T11:35:36.830Z,97643.94
2024-02-19T11:38:03.443Z,97631.22
2024-02-19T11:40:29.929Z,97621.19
2024-02-19T11:42:56.367Z,97618.88
2024-02-19T11:45:22.720Z,97632.72
2024-02-19T11:47:49.130Z,97604.13
2024-02-19T11:50:15.598Z,97596.31
2024-02-19T11:52:42.008Z,97582.69
2024-02-19T11:55:08.407Z,97590.25
2024-02-19T11:57:34.758Z,97584.34
2024-02-19T12:00:01.095Z,97588.31
2024-02-19T12:02:27.497Z,97577.66
2024-02-19T12:04:53.933Z,97561.06
2024-02-19T12:07:20.516Z,97569.50
2024-02-19T12:09:47.035Z,97565.81
2024-02-19T12:12:13.395Z,97555.44
2024-02-19T12:14:39.728Z,97556.06
2024-02-19T12:17:06.106Z,97560.88
2024-02-19T12:19:32.821Z,97546.03
2024-02-19T12:21:59.460Z,97536.72
2024-02-19T12:24:25.871Z,97539.81
2024-02-19T12:26:52.214Z,97544.13
2024-02-19T12:29:18.553Z,97550.09
2024-02-19T12:31:44.934Z,97537.69
2024-02-19T12:34:11.406Z,97543.56
2024-02-19T12:36:37.864Z,97548.41
2024-02-19T12:39:04.272Z,97541.03
2024-02-19T12:41:30.676Z,97553.06
2024-02-19T12:43:57.096Z,97544.09
2024-02-19T12:46:23.521Z,97548.56
2024-02-19T12:48:50.102Z,97555.78
2024-02-19T12:51:16.621Z,97574.16
2024-02-19T12:53:43.043Z,97574.81
2024-02-19T12:56:09.394Z,97548.25
2024-02-19T12:58:35.801Z,97556.31
2024-02-19T13:01:09.189Z,97546.66
2024-02-19T13:03:39.416Z,97550.97
2024-02-19T13:06:05.936Z,97540.97
2024-02-19T13:08:32.406Z,97535.22
2024-02-19T13:10:58.755Z,97536.88
2024-02-19T13:13:25.181Z,97550.06
2024-02-19T13:15:51.648Z,97552.97
2024-02-19T13:18:18.236Z,97561.16
2024-02-19T13:20:44.665Z,97562.81
2024-02-19T13:23:11.039Z,97554.47
2024-02-19T13:25:37.484Z,97557.63
2024-02-19T13:28:03.933Z,97555.97
2024-02-19T13:30:30.304Z,97537.63
2024-02-19T13:32:56.705Z,97533.28
2024-02-19T13:35:23.302Z,97539.72
2024-02-19T13:37:49.765Z,97537.50
2024-02-19T13:40:16.277Z,97536.78
2024-02-19T13:42:42.804Z,97529.25
2024-02-19T13:45:09.216Z,97534.41
2024-02-19T13:47:35.956Z,97529.63
2024-02-19T13:50:03.675Z,97529.69
2024-02-19T13:52:30.149Z,97526.16
2024-02-19T13:54:56.570Z,97528.13
2024-02-19T13:57:22.972Z,97527.78
2024-02-19T13:59:49.349Z,97514.13
2024-02-19T14:02:15.812Z,97533.22
2024-02-19T14:04:42.395Z,97510.28
2024-02-19T14:07:08.841Z,97513.16
2024-02-19T14:09:35.219Z,97501.84
2024-02-19T14:12:01.631Z,97510.88
2024-02-19T14:14:28.001Z,97510.53
2024-02-19T14:16:54.341Z,97518.78
2024-02-19T14:19:20.866Z,97507.44
2024-02-19T14:21:47.258Z,97496.47
2024-02-19T14:24:13.630Z,97483.66
2024-02-19T14:26:40.031Z,97500.34
2024-02-19T14:29:06.363Z,97496.47
2024-02-19T14:31:32.812Z,97507.44
2024-02-19T14:33:59.367Z,97501.63
2024-02-19T14:36:25.815Z,97516.59
2024-02-19T14:38:52.346Z,97537.41
2024-02-19T14:41:18.695Z,97535.63
2024-02-19T14:43:45.090Z,97524.97
2024-02-19T14:46:11.594Z,97495.91
2024-02-19T14:48:38.127Z,97498.19
2024-02-19T14:51:04.519Z,97505.13
2024-02-19T14:53:30.874Z,97501.00
2024-02-19T14:55:57.236Z,97495.84
2024-02-19T14:58:23.613Z,97497.75
2024-02-19T15:00:50.196Z,97495.84
2024-02-19T15:03:16.710Z,97497.66
2024-02-19T15:05:43.072Z,97481.88
2024-02-19T15:08:09.540Z,97469.50
2024-02-19T15:10:36.095Z,97479.78
2024-02-19T15:13:02.557Z,97487.78
2024-02-19T15:15:28.934Z,97478.03
2024-02-19T15:17:55.395Z,97492.44
2024-02-19T15:20:22.083Z,97494.81
2024-02-19T15:22:48.581Z,97490.34
2024-02-19T15:25:15.033Z,97480.31
2024-02-19T15:27:41.439Z,97476.47
2024-02-19T15:30:07.796Z,97469.22
2024-02-19T15:32:34.209Z,97470.03
2024-02-19T15:35:00.713Z,97472.03
2024-02-19T15:37:27.303Z,97481.25
2024-02-19T15:39:53.777Z,97485.41
2024-02-19T15:42:20.142Z,97494.19
2024-02-19T15:44:47.594Z,97489.44
2024-02-19T15:47:13.985Z,97491.09
2024-02-19T15:49:40.438Z,97488.72
2024-02-19T15:52:06.932Z,97484.69
2024-02-19T15:54:33.349Z,97476.69
2024-02-19T15:56:59.710Z,97480.81
2024-02-19T15:59:26.151Z,97478.38
2024-02-19T16:01:54.510Z,97483.22
2024-02-19T16:04:22.731Z,97474.06
2024-02-19T16:06:49.168Z,97476.09
2024-02-19T16:09:15.640Z,97473.63
2024-02-19T16:11:42.036Z,97460.28
2024-02-19T16:14:08.425Z,97458.44
2024-02-19T16:16:34.878Z,97464.78
2024-02-19T16:19:01.451Z,97465.19
2024-02-19T16:21:27.886Z,97467.22
2024-02-19T16:23:54.274Z,97470.00
2024-02-19T16:26:20.649Z,97459.50
2024-02-19T16:28:46.996Z,97454.81
2024-02-19T16:31:13.429Z,97462.53
2024-02-19T16:33:39.956Z,97468.56
2024-02-19T16:36:08.888Z,97479.00
2024-02-19T16:38:35.519Z,97477.41
2024-02-19T16:41:01.895Z,97489.88
2024-02-19T16:43:28.316Z,97501.53
2024-02-19T16:45:54.865Z,97495.66
2024-02-19T16:48:21.552Z,97491.63
2024-02-19T16:50:47.995Z,97502.47
2024-02-19T16:53:14.364Z,97486.78
2024-02-19T16:55:40.768Z,97476.84
2024-02-19T16:58:07.128Z,97472.13
2024-02-19T17:00:33.524Z,97469.47
2024-02-19T17:02:59.876Z,97461.03
2024-02-19T17:05:26.534Z,97456.28
2024-02-19T17:07:53.265Z,97462.69
2024-02-19T17:10:19.822Z,97470.41
2024-02-19T17:12:46.400Z,97464.44
2024-02-19T17:15:12.857Z,97464.50
2024-02-19T17:17:39.227Z,97467.31
2024-02-19T17:20:05.667Z,97466.59
2024-02-19T17:22:32.093Z,97455.16
2024-02-19T17:24:58.479Z,97456.81
2024-02-19T17:27:24.841Z,97454.50
2024-02-19T17:29:51.229Z,97458.19
2024-02-19T17:32:17.597Z,97459.34
2024-02-19T17:34:44.219Z,97444.97
2024-02-19T17:37:10.870Z,97447.31
2024-02-19T17:39:37.307Z,97451.34
2024-02-19T17:42:03.652Z,97449.69
2024-02-19T17:44:30.045Z,97453.56
2024-02-19T17:46:56.420Z,97443.50
2024-02-19T17:49:22.877Z,97447.53
2024-02-19T17:51:49.351Z,97449.97
2024-02-19T17:54:15.724Z,97445.09
2024-02-19T17:56:42.076Z,97441.47
2024-02-19T17:59:10.759Z,97428.25
2024-02-19T18:01:38.202Z,97402.56
2024-02-19T18:04:04.714Z,97414.94
2024-02-19T18:06:33.392Z,97437.47
2024-02-19T18:08:59.953Z,97446.38
2024-02-19T18:11:26.399Z,97447.97
2024-02-19T18:13:52.842Z,97449.97
2024-02-19T18:16:19.275Z,97454.38
2024-02-19T18:18:45.972Z,97457.91
2024-02-19T18:21:12.481Z,97451.50
2024-02-19T18:23:38.834Z,97455.94
2024-02-19T18:26:06.877Z,97454.47
2024-02-19T18:28:33.649Z,97451.28
2024-02-19T18:31:00.090Z,97455.38
2024-02-19T18:33:26.487Z,97459.34
2024-02-19T18:35:52.856Z,97459.41
2024-02-19T18:38:19.251Z,97469.03
2024-02-19T18:40:45.622Z,97473.59
2024-02-19T18:43:12.015Z,97469.69
2024-02-19T18:45:38.373Z,97462.06
2024-02-19T18:48:04.822Z,97458.19
2024-02-19T18:50:31.352Z,97438.47
2024-02-19T18:52:57.909Z,97437.53
2024-02-19T18:55:24.312Z,97447.56
2024-02-19T18:57:50.755Z,97454.81
2024-02-19T19:00:17.183Z,97464.09
2024-02-19T19:02:43.771Z,97461.72
2024-02-19T19:05:10.734Z,97459.06
2024-02-19T19:07:37.639Z,97456.66
2024-02-19T19:10:04.088Z,97456.97
2024-02-19T19:12:30.517Z,97462.22
2024-02-19T19:14:56.886Z,97462.91
2024-02-19T19:17:23.357Z,97457.31
2024-02-19T19:19:49.858Z,97458.19
2024-02-19T19:22:16.477Z,97446.38
2024-02-19T19:24:42.907Z,97444.13
2024-02-19T19:27:09.287Z,97444.34
2024-02-19T19:29:35.640Z,97444.00
2024-02-19T19:32:01.984Z,97445.63
2024-02-19T19:34:28.490Z,97433.19
2024-02-19T19:36:55.063Z,97429.94
2024-02-19T19:39:21.458Z,97420.81
2024-02-19T19:41:47.889Z,97413.88
2024-02-19T19:44:14.258Z,97421.78
2024-02-19T19:46:40.677Z,97430.91
2024-02-19T19:49:07.117Z,97428.41
2024-02-19T19:51:33.517Z,97429.50
2024-02-19T19:53:59.875Z,97417.47
2024-02-19T19:56:26.250Z,97418.19
2024-02-19T19:58:52.653Z,97418.56
2024-02-19T20:01:19.088Z,97418.56
2024-02-19T20:03:45.676Z,97424.53
2024-02-19T20:06:12.398Z,97430.63
2024-02-19T20:08:38.780Z,97436.63
2024-02-19T20:11:05.184Z,97439.03
2024-02-19T20:13:31.721Z,97455.81
2024-02-19T20:15:58.131Z,97473.47
2024-02-19T20:18:24.632Z,97494.69
2024-02-19T20:20:51.083Z,97492.34
2024-02-19T20:23:17.444Z,97496.41
2024-02-19T20:25:43.812Z,97501.03
2024-02-19T20:28:10.204Z,97498.06
2024-02-19T20:30:36.560Z,97500.19
2024-02-19T20:33:03.037Z,97499.88
2024-02-19T20:35:29.425Z,97496.91
2024-02-19T20:37:55.942Z,97491.31
2024-02-19T20:40:22.504Z,97492.03
2024-02-19T20:42:48.982Z,97477.31
2024-02-19T20:45:15.365Z,97478.13
2024-02-19T20:47:41.862Z,97473.75
2024-02-19T20:50:08.291Z,97462.19
2024-02-19T20:52:34.752Z,97460.22
2024-02-19T20:55:01.208Z,97473.50
2024-02-19T20:57:27.593Z,97467.41
2024-02-19T20:59:53.941Z,97471.38
2024-02-19T21:02:20.352Z,97498.63
2024-02-19T21:04:46.842Z,97501.06
2024-02-19T21:07:13.418Z,97505.88
2024-02-19T21:09:39.873Z,97495.50
2024-02-19T21:12:06.229Z,97479.66
2024-02-19T21:14:32.695Z,97475.97
2024-02-19T21:16:59.058Z,97482.59
2024-02-19T21:19:25.520Z,97471.81
2024-02-19T21:21:52.065Z,97474.06
2024-02-19T21:24:18.510Z,97487.16
2024-02-19T21:26:44.877Z,97483.94
2024-02-19T21:29:11.219Z,97477.13
2024-02-19T21:31:37.603Z,97479.91
2024-02-19T21:34:04.174Z,97478.69
2024-02-19T21:36:30.896Z,97485.84
2024-02-19T21:38:57.336Z,97480.66
2024-02-19T21:41:23.741Z,97487.50
2024-02-19T21:43:50.129Z,97475.91
2024-02-19T21:46:16.572Z,97469.47
2024-02-19T21:48:43.088Z,97466.69
2024-02-19T21:51:09.459Z,97482.63
2024-02-19T21:53:35.839Z,97467.03
2024-02-19T21:56:02.211Z,97455.50
2024-02-19T21:58:28.762Z,97458.63
2024-02-19T22:00:55.307Z,97473.00
2024-02-19T22:03:21.714Z,97483.91
2024-02-19T22:05:48.190Z,97481.50
2024-02-19T22:08:14.573Z,97475.91
2024-02-19T22:10:41.038Z,97486.81
2024-02-19T22:13:07.565Z,97484.88
2024-02-19T22:15:33.941Z,97476.50
2024-02-19T22:18:00.395Z,97466.28
2024-02-19T22:20:26.809Z,97468.22
2024-02-19T22:22:53.184Z,97470.13
2024-02-19T22:25:19.985Z,97455.69
2024-02-19T22:27:46.446Z,97441.31
2024-02-19T22:30:12.826Z,97456.91
2024-02-19T22:32:39.226Z,97447.81
2024-02-19T22:35:05.764Z,97459.78
2024-02-19T22:37:32.224Z,97463.06
2024-02-19T22:39:58.661Z,97447.41
2024-02-19T22:42:25.030Z,97443.09
2024-02-19T22:44:51.467Z,97455.13
2024-02-19T22:47:17.897Z,97461.19
2024-02-19T22:49:44.335Z,97463.31
2024-02-19T22:52:10.773Z,97465.75
2024-02-19T22:54:37.126Z,97466.56
2024-02-19T22:57:03.456Z,97468.56
2024-02-19T22:59:29.837Z,97463.34
2024-02-19T23:01:56.278Z,97458.50
2024-02-19T23:04:22.765Z,97461.25
2024-02-19T23:06:49.388Z,97456.97
2024-02-19T23:09:15.920Z,97469.75
2024-02-19T23:11:42.327Z,97469.75
2024-02-19T23:14:08.730Z,97467.41
2024-02-19T23:16:35.141Z,97474.94
2024-02-19T23:19:01.690Z,97461.66
2024-02-19T23:21:28.133Z,97466.78
2024-02-19T23:23:54.463Z,97475.97
2024-02-19T23:26:20.919Z,97477.63
2024-02-19T23:28:47.302Z,97484.44
2024-02-19T23:31:13.670Z,97478.53
2024-02-19T23:33:40.099Z,97475.00
2024-02-19T23:36:06.557Z,97485.34
2024-02-19T23:38:32.896Z,97487.34
2024-02-19T23:40:59.244Z,97488.19
2024-02-19T23:43:25.675Z,97485.41
2024-02-19T23:45:52.069Z,97480.22
2024-02-19T23:48:18.601Z,97490.28
2024-02-19T23:50:45.034Z,97493.81
2024-02-19T23:53:11.433Z,97488.19
2024-02-19T23:55:37.873Z,97498.59
2024-02-19T23:58:04.353Z,97492.28
